METAR Data
IDs: Format: Raw Decoded Include TAF

Data at: 1503 UTC 27 Nov 2021

KRHV 271455Z 00000KT 10SM SKC 07/05 A3017